DTTB

Sidi Ahmed Air Base Airport

Sidi Ahmed, Tunisia
METAR DTTB 151900Z 25006KT 9999 FEW020 15/10 Q1009
Observed Flight Rules
Dec-15 @ 19:00 UTC (33 minutes ago) Visual Flight Rules
Wind Visibility Clouds
250° at 6 knots 10,000+ meters
  • Few at 2,000' AGL
Temperatures Readings
Current 15°C / 59°F
Dewpoint 10°C / 50°F
Humidity 72%
Altimeter 29.79" Hg
Pressure 1009 hPa
Elevation 3
METAR DTTB 151900Z 25006KT 9999 FEW020 15/10 Q1009
Observed Flight Rules
Dec-15 @ 19:00 UTC
(33 minutes ago)
VFR
Wind Visibility
250° at 6 knots 10,000+ meters
Clouds
  • Few at 2,000' AGL
Temperature Dewpoint
15°C / 59°F 10°C / 50°F
Humidity Altimeter Pressure
72% 29.79" Hg 1009 hPa